createdAt,value
2023-02-04T00:03:49.003Z,99044.97
2023-02-04T00:08:56.557Z,99070.88
2023-02-04T00:14:01.409Z,99078.66
2023-02-04T00:19:06.447Z,99113.53
2023-02-04T00:24:13.904Z,99132.56
2023-02-04T00:29:19.644Z,99144.88
2023-02-04T00:34:24.913Z,99171.44
2023-02-04T00:39:32.457Z,99174.94
2023-02-04T00:44:37.333Z,99199.75
2023-02-04T00:49:42.283Z,99222.06
2023-02-04T00:54:49.775Z,99248.72
2023-02-04T00:59:55.667Z,99256.53
2023-02-04T01:05:00.677Z,99285.00
2023-02-04T01:10:09.087Z,99298.06
2023-02-04T01:15:15.140Z,99314.41
2023-02-04T01:20:22.115Z,99322.31
2023-02-04T01:25:29.584Z,99338.34
2023-02-04T01:30:34.572Z,99367.81
2023-02-04T01:35:40.284Z,99372.25
2023-02-04T01:40:49.115Z,99388.91
2023-02-04T01:45:54.961Z,99407.38
2023-02-04T01:51:06.558Z,99410.56
2023-02-04T01:56:20.166Z,99433.69
2023-02-04T02:01:41.877Z,99452.75
2023-02-04T02:06:52.270Z,99473.63
2023-02-04T02:12:00.403Z,99511.75
2023-02-04T02:17:05.346Z,99502.97
2023-02-04T02:22:17.100Z,99532.63
2023-02-04T02:27:25.337Z,99540.72
2023-02-04T02:32:30.236Z,99557.06
2023-02-04T02:37:35.387Z,99574.09
2023-02-04T02:42:43.739Z,99585.72
2023-02-04T02:47:48.945Z,99615.00
2023-02-04T02:52:54.661Z,99633.94
2023-02-04T02:58:02.640Z,99653.28
2023-02-04T03:03:13.737Z,99656.59
2023-02-04T03:08:19.557Z,99673.16
2023-02-04T03:13:27.365Z,99686.25
2023-02-04T03:18:34.540Z,99695.03
2023-02-04T03:23:41.133Z,99714.13
2023-02-04T03:28:49.088Z,99733.59
2023-02-04T03:33:54.316Z,99753.44
2023-02-04T03:39:02.051Z,99768.81
2023-02-04T03:44:09.676Z,99789.72
2023-02-04T03:49:14.528Z,99821.75
2023-02-04T03:54:19.459Z,99829.41
2023-02-04T03:59:28.274Z,99838.06
2023-02-04T04:04:35.998Z,99867.78
2023-02-04T04:09:40.984Z,99871.84
2023-02-04T04:14:48.512Z,99888.97
2023-02-04T04:19:53.407Z,99905.53
2023-02-04T04:24:58.355Z,99913.66
2023-02-04T04:30:06.098Z,99940.31
2023-02-04T04:35:14.288Z,99951.03
2023-02-04T04:40:19.336Z,99968.84
2023-02-04T04:45:26.804Z,99981.38
2023-02-04T04:50:32.341Z,100004.13
2023-02-04T04:55:37.298Z,100016.44
2023-02-04T05:00:44.771Z,100029.31
2023-02-04T05:05:51.826Z,100039.09
2023-02-04T05:10:56.717Z,100048.00
2023-02-04T05:16:04.293Z,100057.19
2023-02-04T05:21:09.217Z,100068.22
2023-02-04T05:26:22.189Z,100079.59
2023-02-04T05:31:37.443Z,100086.84
2023-02-04T05:36:42.764Z,100090.06
2023-02-04T05:41:47.647Z,100102.00
2023-02-04T05:46:55.137Z,100113.50
2023-02-04T05:52:02.253Z,100134.22
2023-02-04T05:57:07.536Z,100143.56
2023-02-04T06:02:15.350Z,100163.56
2023-02-04T06:07:20.847Z,100182.13
2023-02-04T06:12:26.239Z,100200.69
2023-02-04T06:17:33.859Z,100208.97
2023-02-04T06:22:39.297Z,100229.38
2023-02-04T06:27:44.458Z,100240.22
2023-02-04T06:32:52.057Z,100249.91
2023-02-04T06:37:59.196Z,100254.75
2023-02-04T06:43:04.649Z,100272.72
2023-02-04T06:48:12.724Z,100270.50
2023-02-04T06:53:17.593Z,100285.78
2023-02-04T06:58:22.754Z,100304.78
2023-02-04T07:03:30.209Z,100312.00
2023-02-04T07:08:35.136Z,100317.69
2023-02-04T07:13:41.896Z,100328.16
2023-02-04T07:18:51.044Z,100331.81
2023-02-04T07:23:55.974Z,100349.56
2023-02-04T07:29:01.454Z,100347.53
2023-02-04T07:34:09.185Z,100350.56
2023-02-04T07:39:14.271Z,100344.72
2023-02-04T07:44:20.967Z,100352.78
2023-02-04T07:49:29.611Z,100358.63
2023-02-04T07:54:34.935Z,100372.97
2023-02-04T07:59:39.806Z,100367.31
2023-02-04T08:04:47.686Z,100381.03
2023-02-04T08:09:52.609Z,100397.28
2023-02-04T08:14:57.582Z,100403.56
2023-02-04T08:20:05.081Z,100422.63
2023-02-04T08:25:11.771Z,100434.75
2023-02-04T08:30:17.484Z,100438.38
2023-02-04T08:35:25.063Z,100455.53
2023-02-04T08:40:30.558Z,100460.16
2023-02-04T08:45:35.753Z,100464.19
2023-02-04T08:50:43.508Z,100475.50
2023-02-04T08:55:48.653Z,100483.00
2023-02-04T09:00:53.662Z,100492.84
2023-02-04T09:06:01.327Z,100503.72
2023-02-04T09:11:09.952Z,100501.44
2023-02-04T09:16:15.233Z,100512.41
2023-02-04T09:21:22.836Z,100523.59
2023-02-04T09:26:27.816Z,100549.41
2023-02-04T09:31:33.053Z,100538.34
2023-02-04T09:36:40.696Z,100546.41
2023-02-04T09:41:46.650Z,100557.09
2023-02-04T09:46:55.132Z,100565.22
2023-02-04T09:52:04.093Z,100569.44
2023-02-04T09:57:18.381Z,100575.22
2023-02-04T10:02:26.310Z,100589.03
2023-02-04T10:07:34.084Z,100592.78
2023-02-04T10:12:39.088Z,100599.16
2023-02-04T10:17:44.074Z,100600.41
2023-02-04T10:22:54.212Z,100601.53
2023-02-04T10:28:01.574Z,100596.13
2023-02-04T10:33:17.209Z,100597.22
2023-02-04T10:38:25.727Z,100592.59
2023-02-04T10:43:30.825Z,100597.69
2023-02-04T10:48:43.710Z,100603.03
2023-02-04T10:54:12.161Z,100611.72
2023-02-04T10:59:26.973Z,100612.56
2023-02-04T11:04:31.959Z,100615.56
2023-02-04T11:09:39.504Z,100616.38
2023-02-04T11:14:45.423Z,100612.25
2023-02-04T11:19:50.701Z,100609.91
2023-02-04T11:24:58.495Z,100611.66
2023-02-04T11:30:09.117Z,100617.03
2023-02-04T11:35:33.995Z,100622.53
2023-02-04T11:40:43.016Z,100624.16
2023-02-04T11:45:50.063Z,100612.22
2023-02-04T11:50:58.634Z,100626.56
2023-02-04T11:56:07.233Z,100623.22
2023-02-04T12:01:21.489Z,100631.47
2023-02-04T12:06:28.258Z,100631.19
2023-02-04T12:11:36.136Z,100628.59
2023-02-04T12:16:53.137Z,100635.19
2023-02-04T12:22:01.085Z,100630.09
2023-02-04T12:27:08.581Z,100631.75
2023-02-04T12:32:13.555Z,100635.34
2023-02-04T12:37:18.684Z,100637.22
2023-02-04T12:42:26.884Z,100637.22
2023-02-04T12:47:31.832Z,100647.00
2023-02-04T12:52:37.031Z,100633.84
2023-02-04T12:57:44.717Z,100643.84
2023-02-04T13:02:51.925Z,100647.16
2023-02-04T13:07:57.647Z,100655.03
2023-02-04T13:13:05.784Z,100662.38
2023-02-04T13:18:11.045Z,100661.22
2023-02-04T13:23:16.146Z,100665.66
2023-02-04T13:28:23.881Z,100665.94
2023-02-04T13:33:28.879Z,100671.91
2023-02-04T13:38:33.748Z,100683.91
2023-02-04T13:43:42.826Z,100685.97
2023-02-04T13:48:47.727Z,100691.41
2023-02-04T13:53:52.644Z,100695.38
2023-02-04T13:59:00.130Z,100686.78
2023-02-04T14:04:05.108Z,100690.91
2023-02-04T14:09:10.117Z,100684.22
2023-02-04T14:14:19.717Z,100688.25
2023-02-04T14:19:27.666Z,100698.97
2023-02-04T14:24:32.548Z,100704.72
2023-02-04T14:29:40.116Z,100699.28
2023-02-04T14:34:46.600Z,100699.41
2023-02-04T14:39:51.730Z,100700.97
2023-02-04T14:44:59.278Z,100699.16
2023-02-04T14:50:04.893Z,100698.44
2023-02-04T14:55:13.053Z,100699.31
2023-02-04T15:00:22.713Z,100708.97
2023-02-04T15:05:27.614Z,100698.97
2023-02-04T15:10:32.705Z,100701.91
2023-02-04T15:15:40.983Z,100696.09
2023-02-04T15:20:45.864Z,100703.13
2023-02-04T15:25:52.085Z,100694.69
2023-02-04T15:30:59.748Z,100703.13
2023-02-04T15:36:04.988Z,100688.72
2023-02-04T15:41:09.888Z,100699.94
2023-02-04T15:46:17.498Z,100706.47
2023-02-04T15:51:22.751Z,100713.28
2023-02-04T15:56:27.748Z,100711.72
2023-02-04T16:01:37.761Z,100718.75
2023-02-04T16:06:53.483Z,100723.66
2023-02-04T16:12:04.318Z,100723.09
2023-02-04T16:17:11.972Z,100722.66
2023-02-04T16:22:16.852Z,100737.66
2023-02-04T16:27:21.826Z,100731.78
2023-02-04T16:32:29.539Z,100738.28
2023-02-04T16:37:35.364Z,100752.84
2023-02-04T16:42:40.519Z,100745.94
2023-02-04T16:47:49.838Z,100754.84
2023-02-04T16:52:54.809Z,100761.53
2023-02-04T16:58:02.536Z,100773.88
2023-02-04T17:03:10.594Z,100774.91
2023-02-04T17:08:16.539Z,100771.03
2023-02-04T17:13:21.526Z,100773.44
2023-02-04T17:18:29.952Z,100774.63
2023-02-04T17:23:35.511Z,100775.28
2023-02-04T17:28:40.656Z,100777.50
2023-02-04T17:33:49.752Z,100790.94
2023-02-04T17:38:56.890Z,100802.34
2023-02-04T17:44:03.476Z,100793.97
2023-02-04T17:49:13.006Z,100793.09
2023-02-04T17:54:18.115Z,100791.25
2023-02-04T17:59:23.045Z,100798.34
2023-02-04T18:04:30.825Z,100793.84
2023-02-04T18:09:36.101Z,100794.63
2023-02-04T18:14:41.766Z,100800.28
2023-02-04T18:19:49.295Z,100805.84
2023-02-04T18:24:56.746Z,100810.09
2023-02-04T18:30:01.945Z,100811.28
2023-02-04T18:35:38.831Z,100809.44
2023-02-04T18:40:44.377Z,100800.22
2023-02-04T18:45:49.250Z,100788.91
2023-02-04T18:50:59.349Z,100798.28
2023-02-04T18:56:04.875Z,100787.41
2023-02-04T19:01:24.274Z,100790.97
2023-02-04T19:06:36.248Z,100798.63
2023-02-04T19:11:44.099Z,100801.16
2023-02-04T19:16:50.783Z,100810.81
2023-02-04T19:21:58.470Z,100822.19
2023-02-04T19:27:21.130Z,100830.16
2023-02-04T19:32:30.492Z,100829.59
2023-02-04T19:37:42.913Z,100829.44
2023-02-04T19:42:49.881Z,100840.34
2023-02-04T19:47:56.917Z,100848.22
2023-02-04T19:53:14.072Z,100851.09
2023-02-04T19:58:22.593Z,100868.19
2023-02-04T20:03:38.651Z,100854.78
2023-02-04T20:08:49.164Z,100860.78
2023-02-04T20:13:59.860Z,100863.97
2023-02-04T20:19:05.663Z,100873.28
2023-02-04T20:24:19.627Z,100874.34
2023-02-04T20:29:26.329Z,100891.59
2023-02-04T20:34:31.615Z,100888.03
2023-02-04T20:39:44.425Z,100899.53
2023-02-04T20:44:54.065Z,100903.06
2023-02-04T20:50:01.201Z,100910.53
2023-02-04T20:55:23.724Z,100912.69
2023-02-04T21:00:35.099Z,100931.75
2023-02-04T21:05:40.331Z,100932.63
2023-02-04T21:10:47.844Z,100945.50
2023-02-04T21:15:53.798Z,100944.03
2023-02-04T21:20:59.002Z,100953.16
2023-02-04T21:26:07.750Z,100945.91
2023-02-04T21:31:12.963Z,100955.38
2023-02-04T21:36:18.025Z,100970.19
2023-02-04T21:41:26.369Z,100959.50
2023-02-04T21:46:31.216Z,100962.78
2023-02-04T21:51:36.215Z,100963.44
2023-02-04T21:56:43.732Z,100962.28
2023-02-04T22:01:49.687Z,100965.41
2023-02-04T22:06:56.029Z,100956.47
2023-02-04T22:12:04.414Z,100950.72
2023-02-04T22:17:10.423Z,100963.09
2023-02-04T22:22:16.081Z,100958.78
2023-02-04T22:27:25.933Z,100971.03
2023-02-04T22:32:30.878Z,100971.88
2023-02-04T22:37:36.350Z,100977.94
2023-02-04T22:42:43.960Z,100982.94
2023-02-04T22:47:48.952Z,100986.88
2023-02-04T22:52:54.228Z,100979.19
2023-02-04T22:58:02.118Z,100969.91
2023-02-04T23:03:07.229Z,100979.44
2023-02-04T23:08:13.379Z,100976.50
2023-02-04T23:13:24.005Z,100987.41
2023-02-04T23:18:28.914Z,100990.41
2023-02-04T23:23:34.214Z,100993.88
2023-02-04T23:28:41.853Z,100994.53
2023-02-04T23:33:47.075Z,100997.00
2023-02-04T23:38:53.668Z,100994.91
2023-02-04T23:44:03.652Z,101004.72
2023-02-04T23:49:08.974Z,101004.72
2023-02-04T23:54:17.062Z,101002.81
2023-02-04T23:59:24.597Z,100996.09
